sensor_id;sensor_type;location;lat;lon;timestamp;pressure;altitude;pressure_sealevel;temperature
69704;BMP280;56967;43.538;-5.646;2023-05-01T00:00:01;98689.69;;;18.46
69704;BMP280;56967;43.538;-5.646;2023-05-01T00:02:28;98756.66;;;18.65
69704;BMP280;56967;43.538;-5.646;2023-05-01T00:04:54;98783.28;;;18.56
69704;BMP280;56967;43.538;-5.646;2023-05-01T00:07:20;98856.34;;;18.59
69704;BMP280;56967;43.538;-5.646;2023-05-01T00:09:45;98923.66;;;18.59
69704;BMP280;56967;43.538;-5.646;2023-05-01T00:12:10;98899.53;;;18.39
69704;BMP280;56967;43.538;-5.646;2023-05-01T00:14:36;98694.72;;;18.22
69704;BMP280;56967;43.538;-5.646;2023-05-01T00:17:01;98545.59;;;18.06
69704;BMP280;56967;43.538;-5.646;2023-05-01T00:19:27;98728.03;;;17.93
69704;BMP280;56967;43.538;-5.646;2023-05-01T00:21:52;98599.19;;;18.08
69704;BMP280;56967;43.538;-5.646;2023-05-01T00:24:17;98579.81;;;18.08
69704;BMP280;56967;43.538;-5.646;2023-05-01T00:26:43;98763.56;;;18.32
69704;BMP280;56967;43.538;-5.646;2023-05-01T00:29:09;98653.75;;;18.23
69704;BMP280;56967;43.538;-5.646;2023-05-01T00:31:34;98640.34;;;17.76
69704;BMP280;56967;43.538;-5.646;2023-05-01T00:34:00;98636.56;;;18.20
69704;BMP280;56967;43.538;-5.646;2023-05-01T00:36:25;98870.06;;;18.18
69704;BMP280;56967;43.538;-5.646;2023-05-01T00:38:51;98935.81;;;18.35
69704;BMP280;56967;43.538;-5.646;2023-05-01T00:41:16;98945.06;;;18.29
69704;BMP280;56967;43.538;-5.646;2023-05-01T00:43:42;98876.03;;;18.24
69704;BMP280;56967;43.538;-5.646;2023-05-01T00:46:07;98975.91;;;18.08
69704;BMP280;56967;43.538;-5.646;2023-05-01T00:48:33;98957.03;;;18.18
69704;BMP280;56967;43.538;-5.646;2023-05-01T00:50:59;99104.75;;;17.79
69704;BMP280;56967;43.538;-5.646;2023-05-01T00:53:24;99186.81;;;18.39
69704;BMP280;56967;43.538;-5.646;2023-05-01T00:55:52;99272.31;;;18.46
69704;BMP280;56967;43.538;-5.646;2023-05-01T00:58:18;99340.75;;;18.54
69704;BMP280;56967;43.538;-5.646;2023-05-01T01:00:44;99406.13;;;18.46
69704;BMP280;56967;43.538;-5.646;2023-05-01T01:03:10;99428.31;;;18.42
69704;BMP280;56967;43.538;-5.646;2023-05-01T01:05:38;99430.22;;;18.00
69704;BMP280;56967;43.538;-5.646;2023-05-01T01:08:10;99334.69;;;17.90
69704;BMP280;56967;43.538;-5.646;2023-05-01T01:10:46;99177.66;;;17.51
69704;BMP280;56967;43.538;-5.646;2023-05-01T01:16:11;99364.28;;;17.97
69704;BMP280;56967;43.538;-5.646;2023-05-01T01:21:30;99116.84;;;17.63
69704;BMP280;56967;43.538;-5.646;2023-05-01T01:29:27;99589.97;;;17.85
69704;BMP280;56967;43.538;-5.646;2023-05-01T01:34:50;99461.06;;;17.69
69704;BMP280;56967;43.538;-5.646;2023-05-01T01:37:16;99364.69;;;17.64
69704;BMP280;56967;43.538;-5.646;2023-05-01T01:42:13;99262.19;;;17.49
69704;BMP280;56967;43.538;-5.646;2023-05-01T01:44:53;99176.38;;;17.35
69704;BMP280;56967;43.538;-5.646;2023-05-01T01:47:19;99039.69;;;17.32
69704;BMP280;56967;43.538;-5.646;2023-05-01T01:49:47;99056.72;;;17.31
69704;BMP280;56967;43.538;-5.646;2023-05-01T01:52:14;98877.41;;;16.67
69704;BMP280;56967;43.538;-5.646;2023-05-01T01:54:44;98649.91;;;16.64
69704;BMP280;56967;43.538;-5.646;2023-05-01T01:57:12;98582.00;;;16.55
69704;BMP280;56967;43.538;-5.646;2023-05-01T01:59:38;98481.66;;;17.13
69704;BMP280;56967;43.538;-5.646;2023-05-01T02:02:05;98748.50;;;17.19
69704;BMP280;56967;43.538;-5.646;2023-05-01T02:04:31;98683.34;;;16.52
69704;BMP280;56967;43.538;-5.646;2023-05-01T02:06:57;98651.50;;;17.05
69704;BMP280;56967;43.538;-5.646;2023-05-01T02:09:24;98729.34;;;17.00
69704;BMP280;56967;43.538;-5.646;2023-05-01T02:11:50;98727.00;;;16.99
69704;BMP280;56967;43.538;-5.646;2023-05-01T02:14:17;98720.59;;;17.00
69704;BMP280;56967;43.538;-5.646;2023-05-01T02:16:42;98288.88;;;16.75
69704;BMP280;56967;43.538;-5.646;2023-05-01T02:19:09;98124.00;;;16.18
69704;BMP280;56967;43.538;-5.646;2023-05-01T02:21:34;98071.56;;;16.49
69704;BMP280;56967;43.538;-5.646;2023-05-01T02:24:01;98116.13;;;16.55
69704;BMP280;56967;43.538;-5.646;2023-05-01T02:26:28;98119.00;;;16.71
69704;BMP280;56967;43.538;-5.646;2023-05-01T02:28:53;98215.16;;;16.25
69704;BMP280;56967;43.538;-5.646;2023-05-01T02:31:19;98183.31;;;16.68
69704;BMP280;56967;43.538;-5.646;2023-05-01T02:33:45;98166.81;;;16.45
69704;BMP280;56967;43.538;-5.646;2023-05-01T02:36:10;98146.06;;;16.39
69704;BMP280;56967;43.538;-5.646;2023-05-01T02:38:37;98146.84;;;16.39
69704;BMP280;56967;43.538;-5.646;2023-05-01T02:41:02;98102.75;;;16.35
69704;BMP280;56967;43.538;-5.646;2023-05-01T02:43:28;98057.69;;;16.35
69704;BMP280;56967;43.538;-5.646;2023-05-01T02:45:56;98036.38;;;16.31
69704;BMP280;56967;43.538;-5.646;2023-05-01T02:48:24;97958.47;;;16.15
69704;BMP280;56967;43.538;-5.646;2023-05-01T02:50:50;97955.00;;;16.32
69704;BMP280;56967;43.538;-5.646;2023-05-01T02:53:16;97962.00;;;15.81
69704;BMP280;56967;43.538;-5.646;2023-05-01T02:55:42;97845.38;;;16.36
69704;BMP280;56967;43.538;-5.646;2023-05-01T02:58:13;98077.78;;;16.44
69704;BMP280;56967;43.538;-5.646;2023-05-01T03:00:40;98173.69;;;16.46
69704;BMP280;56967;43.538;-5.646;2023-05-01T03:03:05;98174.00;;;16.45
69704;BMP280;56967;43.538;-5.646;2023-05-01T03:05:31;98222.19;;;16.55
69704;BMP280;56967;43.538;-5.646;2023-05-01T03:07:57;98262.09;;;16.50
69704;BMP280;56967;43.538;-5.646;2023-05-01T03:10:22;98255.38;;;16.44
69704;BMP280;56967;43.538;-5.646;2023-05-01T03:12:47;98249.28;;;16.44
69704;BMP280;56967;43.538;-5.646;2023-05-01T03:15:13;98246.81;;;16.39
69704;BMP280;56967;43.538;-5.646;2023-05-01T03:17:38;98253.66;;;16.40
69704;BMP280;56967;43.538;-5.646;2023-05-01T03:20:04;98322.16;;;16.46
69704;BMP280;56967;43.538;-5.646;2023-05-01T03:22:30;98336.16;;;16.47
69704;BMP280;56967;43.538;-5.646;2023-05-01T03:24:57;98352.41;;;16.54
69704;BMP280;56967;43.538;-5.646;2023-05-01T03:27:22;98408.75;;;16.68
69704;BMP280;56967;43.538;-5.646;2023-05-01T03:29:47;98490.59;;;16.61
69704;BMP280;56967;43.538;-5.646;2023-05-01T03:32:13;98672.38;;;16.67
69704;BMP280;56967;43.538;-5.646;2023-05-01T03:34:40;98773.66;;;16.69
69704;BMP280;56967;43.538;-5.646;2023-05-01T03:37:06;98797.91;;;16.85
69704;BMP280;56967;43.538;-5.646;2023-05-01T03:39:31;98933.50;;;16.97
69704;BMP280;56967;43.538;-5.646;2023-05-01T03:41:56;98982.84;;;16.98
69704;BMP280;56967;43.538;-5.646;2023-05-01T03:44:23;99028.06;;;16.93
69704;BMP280;56967;43.538;-5.646;2023-05-01T03:46:48;99079.59;;;16.78
69704;BMP280;56967;43.538;-5.646;2023-05-01T03:49:13;99077.50;;;16.75
69704;BMP280;56967;43.538;-5.646;2023-05-01T03:51:39;99032.50;;;16.70
69704;BMP280;56967;43.538;-5.646;2023-05-01T03:54:04;99047.09;;;16.59
69704;BMP280;56967;43.538;-5.646;2023-05-01T03:56:30;99010.22;;;16.57
69704;BMP280;56967;43.538;-5.646;2023-05-01T03:58:59;98524.97;;;15.60
69704;BMP280;56967;43.538;-5.646;2023-05-01T04:01:24;98334.28;;;15.74
69704;BMP280;56967;43.538;-5.646;2023-05-01T04:03:50;98393.84;;;15.85
69704;BMP280;56967;43.538;-5.646;2023-05-01T04:06:16;98393.44;;;15.69
69704;BMP280;56967;43.538;-5.646;2023-05-01T04:08:42;98415.69;;;15.90
69704;BMP280;56967;43.538;-5.646;2023-05-01T04:11:07;98415.09;;;15.71
69704;BMP280;56967;43.538;-5.646;2023-05-01T04:13:33;98317.72;;;15.60
69704;BMP280;56967;43.538;-5.646;2023-05-01T04:15:58;98298.28;;;15.64
69704;BMP280;56967;43.538;-5.646;2023-05-01T04:18:24;98162.03;;;15.79
69704;BMP280;56967;43.538;-5.646;2023-05-01T04:20:49;98226.94;;;15.59
69704;BMP280;56967;43.538;-5.646;2023-05-01T04:23:15;97989.78;;;15.58
69704;BMP280;56967;43.538;-5.646;2023-05-01T04:25:40;97818.06;;;15.48
69704;BMP280;56967;43.538;-5.646;2023-05-01T04:28:06;97751.09;;;15.56
69704;BMP280;56967;43.538;-5.646;2023-05-01T04:30:31;97763.38;;;15.61
69704;BMP280;56967;43.538;-5.646;2023-05-01T04:32:57;97747.56;;;15.44
69704;BMP280;56967;43.538;-5.646;2023-05-01T04:35:25;97707.53;;;15.54
69704;BMP280;56967;43.538;-5.646;2023-05-01T04:37:51;97709.25;;;15.50
69704;BMP280;56967;43.538;-5.646;2023-05-01T04:40:16;97654.28;;;15.55
69704;BMP280;56967;43.538;-5.646;2023-05-01T04:42:41;97664.59;;;15.48
69704;BMP280;56967;43.538;-5.646;2023-05-01T04:45:07;97575.78;;;15.39
69704;BMP280;56967;43.538;-5.646;2023-05-01T04:47:33;97510.16;;;15.32
69704;BMP280;56967;43.538;-5.646;2023-05-01T04:49:58;97441.81;;;15.34
69704;BMP280;56967;43.538;-5.646;2023-05-01T04:52:23;97324.00;;;15.37
69704;BMP280;56967;43.538;-5.646;2023-05-01T04:54:49;97480.31;;;15.44
69704;BMP280;56967;43.538;-5.646;2023-05-01T04:57:14;97542.03;;;15.56
69704;BMP280;56967;43.538;-5.646;2023-05-01T04:59:40;97626.34;;;15.46
69704;BMP280;56967;43.538;-5.646;2023-05-01T05:02:05;97575.59;;;15.44
69704;BMP280;56967;43.538;-5.646;2023-05-01T05:04:30;97540.53;;;15.47
69704;BMP280;56967;43.538;-5.646;2023-05-01T05:06:57;97548.81;;;15.45
69704;BMP280;56967;43.538;-5.646;2023-05-01T05:09:23;97534.28;;;15.51
69704;BMP280;56967;43.538;-5.646;2023-05-01T05:11:48;97556.03;;;15.57
69704;BMP280;56967;43.538;-5.646;2023-05-01T05:14:13;97562.56;;;15.59
69704;BMP280;56967;43.538;-5.646;2023-05-01T05:16:39;97597.50;;;15.65
69704;BMP280;56967;43.538;-5.646;2023-05-01T05:19:04;97648.22;;;15.75
69704;BMP280;56967;43.538;-5.646;2023-05-01T05:21:29;97751.28;;;15.80
69704;BMP280;56967;43.538;-5.646;2023-05-01T05:23:55;97856.09;;;15.81
69704;BMP280;56967;43.538;-5.646;2023-05-01T05:26:21;97932.88;;;15.81
69704;BMP280;56967;43.538;-5.646;2023-05-01T05:28:47;97931.19;;;15.77
69704;BMP280;56967;43.538;-5.646;2023-05-01T05:31:12;97970.25;;;15.88
69704;BMP280;56967;43.538;-5.646;2023-05-01T05:33:37;98001.56;;;15.86
69704;BMP280;56967;43.538;-5.646;2023-05-01T05:36:03;98017.47;;;15.95
69704;BMP280;56967;43.538;-5.646;2023-05-01T05:38:28;98094.84;;;16.26
69704;BMP280;56967;43.538;-5.646;2023-05-01T05:40:54;98208.63;;;16.48
69704;BMP280;56967;43.538;-5.646;2023-05-01T05:43:19;98535.78;;;18.36
69704;BMP280;56967;43.538;-5.646;2023-05-01T05:45:45;99879.53;;;21.32
69704;BMP280;56967;43.538;-5.646;2023-05-01T05:48:10;100962.28;;;23.24
69704;BMP280;56967;43.538;-5.646;2023-05-01T05:50:36;101317.22;;;24.50
69704;BMP280;56967;43.538;-5.646;2023-05-01T05:53:01;101561.22;;;25.95
69704;BMP280;56967;43.538;-5.646;2023-05-01T05:55:26;101673.09;;;27.49
69704;BMP280;56967;43.538;-5.646;2023-05-01T05:57:52;101751.56;;;28.36
69704;BMP280;56967;43.538;-5.646;2023-05-01T06:00:17;101804.44;;;29.70
69704;BMP280;56967;43.538;-5.646;2023-05-01T06:02:43;101831.25;;;30.09
69704;BMP280;56967;43.538;-5.646;2023-05-01T06:05:08;101848.25;;;31.26
69704;BMP280;56967;43.538;-5.646;2023-05-01T06:07:34;101881.72;;;31.84
69704;BMP280;56967;43.538;-5.646;2023-05-01T06:10:00;101902.63;;;32.52
69704;BMP280;56967;43.538;-5.646;2023-05-01T06:12:29;101909.84;;;33.67
69704;BMP280;56967;43.538;-5.646;2023-05-01T06:14:55;101922.72;;;33.97
69704;BMP280;56967;43.538;-5.646;2023-05-01T06:17:21;101932.06;;;34.81
69704;BMP280;56967;43.538;-5.646;2023-05-01T06:19:47;101945.72;;;35.83
69704;BMP280;56967;43.538;-5.646;2023-05-01T06:22:14;101952.97;;;36.77
69704;BMP280;56967;43.538;-5.646;2023-05-01T06:24:39;101969.47;;;37.50
69704;BMP280;56967;43.538;-5.646;2023-05-01T06:27:05;101971.59;;;37.71
69704;BMP280;56967;43.538;-5.646;2023-05-01T06:29:30;101977.03;;;37.23
69704;BMP280;56967;43.538;-5.646;2023-05-01T06:31:56;101975.84;;;38.19
69704;BMP280;56967;43.538;-5.646;2023-05-01T06:34:21;101983.38;;;37.71
69704;BMP280;56967;43.538;-5.646;2023-05-01T06:36:47;101986.53;;;38.27
69704;BMP280;56967;43.538;-5.646;2023-05-01T06:39:12;101989.88;;;38.71
69704;BMP280;56967;43.538;-5.646;2023-05-01T06:41:37;101995.06;;;38.83
69704;BMP280;56967;43.538;-5.646;2023-05-01T06:44:03;101999.91;;;39.81
69704;BMP280;56967;43.538;-5.646;2023-05-01T06:46:28;101999.47;;;39.19
69704;BMP280;56967;43.538;-5.646;2023-05-01T06:48:54;101996.75;;;39.23
69704;BMP280;56967;43.538;-5.646;2023-05-01T06:51:19;101991.53;;;40.30
69704;BMP280;56967;43.538;-5.646;2023-05-01T06:53:45;101982.53;;;40.12
69704;BMP280;56967;43.538;-5.646;2023-05-01T06:56:10;101995.94;;;40.03
69704;BMP280;56967;43.538;-5.646;2023-05-01T06:58:35;102002.28;;;38.37
69704;BMP280;56967;43.538;-5.646;2023-05-01T07:01:01;101991.16;;;37.25
69704;BMP280;56967;43.538;-5.646;2023-05-01T07:03:26;101995.72;;;34.82
69704;BMP280;56967;43.538;-5.646;2023-05-01T07:05:52;102009.66;;;34.27
69704;BMP280;56967;43.538;-5.646;2023-05-01T07:08:18;102007.97;;;34.88
69704;BMP280;56967;43.538;-5.646;2023-05-01T07:10:43;102006.31;;;38.54
69704;BMP280;56967;43.538;-5.646;2023-05-01T07:13:09;102013.41;;;38.01
69704;BMP280;56967;43.538;-5.646;2023-05-01T07:15:34;102015.88;;;37.25
69704;BMP280;56967;43.538;-5.646;2023-05-01T07:18:00;102015.47;;;36.12
69704;BMP280;56967;43.538;-5.646;2023-05-01T07:20:27;102014.06;;;39.72
69704;BMP280;56967;43.538;-5.646;2023-05-01T07:22:52;102022.41;;;37.14
69704;BMP280;56967;43.538;-5.646;2023-05-01T07:25:17;102016.97;;;35.64
69704;BMP280;56967;43.538;-5.646;2023-05-01T07:27:44;102018.09;;;37.49
69704;BMP280;56967;43.538;-5.646;2023-05-01T07:30:09;102030.84;;;37.68
69704;BMP280;56967;43.538;-5.646;2023-05-01T07:32:35;102048.41;;;38.00
69704;BMP280;56967;43.538;-5.646;2023-05-01T07:35:00;102026.53;;;38.93
69704;BMP280;56967;43.538;-5.646;2023-05-01T07:37:26;102039.19;;;40.31
69704;BMP280;56967;43.538;-5.646;2023-05-01T07:39:51;102042.81;;;39.40
69704;BMP280;56967;43.538;-5.646;2023-05-01T07:42:16;102059.72;;;40.12
69704;BMP280;56967;43.538;-5.646;2023-05-01T07:44:42;102065.72;;;38.69
69704;BMP280;56967;43.538;-5.646;2023-05-01T07:47:07;102066.03;;;39.99
69704;BMP280;56967;43.538;-5.646;2023-05-01T07:49:36;102065.09;;;40.65
69704;BMP280;56967;43.538;-5.646;2023-05-01T07:52:04;102070.16;;;41.42
69704;BMP280;56967;43.538;-5.646;2023-05-01T07:54:31;102058.28;;;40.94
69704;BMP280;56967;43.538;-5.646;2023-05-01T07:56:57;102072.13;;;40.80
69704;BMP280;56967;43.538;-5.646;2023-05-01T07:59:22;102075.81;;;38.47
69704;BMP280;56967;43.538;-5.646;2023-05-01T08:01:47;102056.88;;;38.32
69704;BMP280;56967;43.538;-5.646;2023-05-01T08:04:13;102022.78;;;35.21
69704;BMP280;56967;43.538;-5.646;2023-05-01T08:06:38;102071.72;;;38.81
69704;BMP280;56967;43.538;-5.646;2023-05-01T08:09:04;102069.84;;;44.00
69704;BMP280;56967;43.538;-5.646;2023-05-01T08:11:29;102078.53;;;45.69
69704;BMP280;56967;43.538;-5.646;2023-05-01T08:13:57;102078.75;;;42.02
69704;BMP280;56967;43.538;-5.646;2023-05-01T08:16:22;102083.28;;;39.22
69704;BMP280;56967;43.538;-5.646;2023-05-01T08:18:48;102097.56;;;43.08
69704;BMP280;56967;43.538;-5.646;2023-05-01T08:21:13;102085.28;;;43.35
69704;BMP280;56967;43.538;-5.646;2023-05-01T08:23:38;102099.03;;;40.55
69704;BMP280;56967;43.538;-5.646;2023-05-01T08:26:04;102084.13;;;34.86
69704;BMP280;56967;43.538;-5.646;2023-05-01T08:28:29;102091.91;;;32.34
69704;BMP280;56967;43.538;-5.646;2023-05-01T08:30:55;102104.38;;;37.48
69704;BMP280;56967;43.538;-5.646;2023-05-01T08:33:20;102108.94;;;37.04
69704;BMP280;56967;43.538;-5.646;2023-05-01T08:35:45;102102.66;;;39.89
69704;BMP280;56967;43.538;-5.646;2023-05-01T08:38:11;102110.72;;;37.89
69704;BMP280;56967;43.538;-5.646;2023-05-01T08:40:37;102102.44;;;39.01
69704;BMP280;56967;43.538;-5.646;2023-05-01T08:43:02;102101.38;;;39.23
69704;BMP280;56967;43.538;-5.646;2023-05-01T08:45:28;102093.09;;;36.42
69704;BMP280;56967;43.538;-5.646;2023-05-01T08:47:59;102107.50;;;38.85
69704;BMP280;56967;43.538;-5.646;2023-05-01T08:50:26;102100.75;;;36.11
69704;BMP280;56967;43.538;-5.646;2023-05-01T08:52:52;102144.13;;;38.42
69704;BMP280;56967;43.538;-5.646;2023-05-01T08:55:18;102130.19;;;36.59
69704;BMP280;56967;43.538;-5.646;2023-05-01T08:57:45;102136.59;;;36.21
69704;BMP280;56967;43.538;-5.646;2023-05-01T09:00:16;102144.63;;;34.10
69704;BMP280;56967;43.538;-5.646;2023-05-01T09:02:42;102136.53;;;35.22
69704;BMP280;56967;43.538;-5.646;2023-05-01T09:05:08;102148.38;;;36.25
69704;BMP280;56967;43.538;-5.646;2023-05-01T09:07:34;102148.59;;;35.56
69704;BMP280;56967;43.538;-5.646;2023-05-01T09:09:59;102155.16;;;31.98
69704;BMP280;56967;43.538;-5.646;2023-05-01T09:12:25;102138.31;;;30.88
69704;BMP280;56967;43.538;-5.646;2023-05-01T09:14:54;102150.06;;;28.50
69704;BMP280;56967;43.538;-5.646;2023-05-01T09:17:20;102146.50;;;30.71
69704;BMP280;56967;43.538;-5.646;2023-05-01T09:19:46;102161.31;;;30.82
69704;BMP280;56967;43.538;-5.646;2023-05-01T09:22:12;102166.59;;;28.84
69704;BMP280;56967;43.538;-5.646;2023-05-01T09:24:38;102145.47;;;31.89
69704;BMP280;56967;43.538;-5.646;2023-05-01T09:27:04;102130.88;;;32.91
69704;BMP280;56967;43.538;-5.646;2023-05-01T09:29:37;102302.16;;;26.02
69704;BMP280;56967;43.538;-5.646;2023-05-01T09:32:14;102118.25;;;30.55
69704;BMP280;56967;43.538;-5.646;2023-05-01T09:34:41;102118.75;;;26.68
69704;BMP280;56967;43.538;-5.646;2023-05-01T09:37:11;102094.09;;;30.71
69704;BMP280;56967;43.538;-5.646;2023-05-01T09:39:37;102111.50;;;29.59
69704;BMP280;56967;43.538;-5.646;2023-05-01T09:42:03;102116.53;;;30.16
69704;BMP280;56967;43.538;-5.646;2023-05-01T09:44:29;102103.66;;;28.57
69704;BMP280;56967;43.538;-5.646;2023-05-01T09:46:54;102106.06;;;28.23
69704;BMP280;56967;43.538;-5.646;2023-05-01T09:49:43;102097.09;;;27.86
69704;BMP280;56967;43.538;-5.646;2023-05-01T09:52:12;102042.75;;;25.39
69704;BMP280;56967;43.538;-5.646;2023-05-01T09:54:38;101951.25;;;23.61
69704;BMP280;56967;43.538;-5.646;2023-05-01T09:57:04;101789.50;;;22.11
69704;BMP280;56967;43.538;-5.646;2023-05-01T09:59:30;101623.19;;;21.42
69704;BMP280;56967;43.538;-5.646;2023-05-01T10:01:58;101428.19;;;20.65
69704;BMP280;56967;43.538;-5.646;2023-05-01T10:04:33;101223.56;;;20.39
69704;BMP280;56967;43.538;-5.646;2023-05-01T10:07:10;101153.91;;;20.20
69704;BMP280;56967;43.538;-5.646;2023-05-01T10:09:37;101105.53;;;20.27
69704;BMP280;56967;43.538;-5.646;2023-05-01T10:12:03;101102.63;;;20.18
69704;BMP280;56967;43.538;-5.646;2023-05-01T10:14:29;101040.47;;;20.02
69704;BMP280;56967;43.538;-5.646;2023-05-01T10:16:58;100897.84;;;19.65
69704;BMP280;56967;43.538;-5.646;2023-05-01T10:19:24;100941.25;;;19.75
69704;BMP280;56967;43.538;-5.646;2023-05-01T10:21:49;100788.94;;;19.82
69704;BMP280;56967;43.538;-5.646;2023-05-01T10:24:15;100803.06;;;19.82
69704;BMP280;56967;43.538;-5.646;2023-05-01T10:26:41;100754.22;;;19.28
69704;BMP280;56967;43.538;-5.646;2023-05-01T10:29:11;100802.97;;;19.97
69704;BMP280;56967;43.538;-5.646;2023-05-01T10:31:37;100526.75;;;19.71
69704;BMP280;56967;43.538;-5.646;2023-05-01T10:34:02;100553.78;;;19.65
69704;BMP280;56967;43.538;-5.646;2023-05-01T10:36:44;100546.13;;;19.53
69704;BMP280;56967;43.538;-5.646;2023-05-01T10:39:38;100711.75;;;19.52
69704;BMP280;56967;43.538;-5.646;2023-05-01T10:42:04;100623.81;;;19.41
69704;BMP280;56967;43.538;-5.646;2023-05-01T10:44:31;100831.22;;;20.03
69704;BMP280;56967;43.538;-5.646;2023-05-01T10:46:59;100690.06;;;19.63
69704;BMP280;56967;43.538;-5.646;2023-05-01T10:49:24;100712.19;;;19.69
69704;BMP280;56967;43.538;-5.646;2023-05-01T10:56:56;100864.34;;;19.97
69704;BMP280;56967;43.538;-5.646;2023-05-01T10:59:23;100911.19;;;20.23
69704;BMP280;56967;43.538;-5.646;2023-05-01T11:12:02;100633.03;;;19.54
69704;BMP280;56967;43.538;-5.646;2023-05-01T11:25:03;100550.16;;;19.51
69704;BMP280;56967;43.538;-5.646;2023-05-01T11:27:30;100409.88;;;18.97
69704;BMP280;56967;43.538;-5.646;2023-05-01T11:32:24;100432.25;;;18.91
69704;BMP280;56967;43.538;-5.646;2023-05-01T11:34:51;100420.63;;;18.77
69704;BMP280;56967;43.538;-5.646;2023-05-01T11:37:17;100511.25;;;18.67
69704;BMP280;56967;43.538;-5.646;2023-05-01T11:39:50;100495.34;;;19.01
69704;BMP280;56967;43.538;-5.646;2023-05-01T11:42:19;100421.00;;;18.65
69704;BMP280;56967;43.538;-5.646;2023-05-01T11:45:08;100462.84;;;18.55
69704;BMP280;56967;43.538;-5.646;2023-05-01T11:47:36;100443.34;;;18.69
69704;BMP280;56967;43.538;-5.646;2023-05-01T11:55:05;100049.03;;;18.66
69704;BMP280;56967;43.538;-5.646;2023-05-01T11:57:52;100276.09;;;18.71
69704;BMP280;56967;43.538;-5.646;2023-05-01T12:00:40;100298.78;;;18.64
69704;BMP280;56967;43.538;-5.646;2023-05-01T12:03:07;100350.81;;;18.46
69704;BMP280;56967;43.538;-5.646;2023-05-01T12:05:34;100370.53;;;18.84
69704;BMP280;56967;43.538;-5.646;2023-05-01T12:08:18;100322.81;;;18.93
69704;BMP280;56967;43.538;-5.646;2023-05-01T12:10:56;100398.91;;;18.99
69704;BMP280;56967;43.538;-5.646;2023-05-01T12:13:23;100542.44;;;19.10
69704;BMP280;56967;43.538;-5.646;2023-05-01T12:15:53;100406.19;;;18.44
69704;BMP280;56967;43.538;-5.646;2023-05-01T12:18:19;100364.72;;;18.77
69704;BMP280;56967;43.538;-5.646;2023-05-01T12:23:17;100287.81;;;18.70
69704;BMP280;56967;43.538;-5.646;2023-05-01T12:25:44;100424.03;;;18.88
69704;BMP280;56967;43.538;-5.646;2023-05-01T12:28:16;100493.06;;;19.18
69704;BMP280;56967;43.538;-5.646;2023-05-01T12:30:47;100512.78;;;19.17
69704;BMP280;56967;43.538;-5.646;2023-05-01T12:33:18;100579.16;;;19.18
69704;BMP280;56967;43.538;-5.646;2023-05-01T12:35:46;100440.72;;;18.54
69704;BMP280;56967;43.538;-5.646;2023-05-01T12:38:17;100433.66;;;18.84
69704;BMP280;56967;43.538;-5.646;2023-05-01T12:45:43;99850.28;;;18.24
69704;BMP280;56967;43.538;-5.646;2023-05-01T12:48:12;100000.97;;;18.57
69704;BMP280;56967;43.538;-5.646;2023-05-01T12:50:40;99981.25;;;18.58
69704;BMP280;56967;43.538;-5.646;2023-05-01T12:55:47;100054.13;;;18.62
69704;BMP280;56967;43.538;-5.646;2023-05-01T13:00:53;99777.19;;;18.54
69704;BMP280;56967;43.538;-5.646;2023-05-01T13:08:38;99681.44;;;18.49
69704;BMP280;56967;43.538;-5.646;2023-05-01T13:11:11;100029.81;;;18.50
69704;BMP280;56967;43.538;-5.646;2023-05-01T13:18:28;99786.50;;;18.19
69704;BMP280;56967;43.538;-5.646;2023-05-01T13:20:54;100271.47;;;18.82
69704;BMP280;56967;43.538;-5.646;2023-05-01T13:23:20;100319.47;;;18.72
69704;BMP280;56967;43.538;-5.646;2023-05-01T13:33:03;100027.88;;;18.56
69704;BMP280;56967;43.538;-5.646;2023-05-01T13:35:30;100265.25;;;18.63
69704;BMP280;56967;43.538;-5.646;2023-05-01T13:37:55;100177.94;;;18.65
69704;BMP280;56967;43.538;-5.646;2023-05-01T14:09:39;100204.97;;;18.72
69704;BMP280;56967;43.538;-5.646;2023-05-01T14:12:06;100375.00;;;18.89
69704;BMP280;56967;43.538;-5.646;2023-05-01T14:14:34;100426.41;;;18.94
69704;BMP280;56967;43.538;-5.646;2023-05-01T14:17:00;100393.91;;;18.53
69704;BMP280;56967;43.538;-5.646;2023-05-01T14:19:25;100563.66;;;19.25
69704;BMP280;56967;43.538;-5.646;2023-05-01T14:21:51;100579.53;;;19.40
69704;BMP280;56967;43.538;-5.646;2023-05-01T14:36:26;100553.81;;;19.60
69704;BMP280;56967;43.538;-5.646;2023-05-01T16:38:18;100296.09;;;18.69
69704;BMP280;56967;43.538;-5.646;2023-05-01T16:40:45;100441.19;;;18.71
69704;BMP280;56967;43.538;-5.646;2023-05-01T16:55:20;100122.97;;;18.50
69704;BMP280;56967;43.538;-5.646;2023-05-01T17:12:20;100219.56;;;18.17
69704;BMP280;56967;43.538;-5.646;2023-05-01T17:14:45;100214.53;;;18.16
69704;BMP280;56967;43.538;-5.646;2023-05-01T17:17:11;100253.66;;;18.15
69704;BMP280;56967;43.538;-5.646;2023-05-01T17:19:37;100051.66;;;17.95
69704;BMP280;56967;43.538;-5.646;2023-05-01T17:29:21;99503.25;;;17.57
69704;BMP280;56967;43.538;-5.646;2023-05-01T17:31:47;99908.22;;;17.80
69704;BMP280;56967;43.538;-5.646;2023-05-01T17:34:12;99960.59;;;17.79
69704;BMP280;56967;43.538;-5.646;2023-05-01T17:39:02;99736.94;;;17.67
69704;BMP280;56967;43.538;-5.646;2023-05-01T17:41:28;99839.06;;;17.61
69704;BMP280;56967;43.538;-5.646;2023-05-01T17:43:54;99878.56;;;17.73
69704;BMP280;56967;43.538;-5.646;2023-05-01T17:46:19;99884.22;;;17.61
69704;BMP280;56967;43.538;-5.646;2023-05-01T17:48:44;99810.31;;;17.68
69704;BMP280;56967;43.538;-5.646;2023-05-01T17:51:10;99806.56;;;17.69
69704;BMP280;56967;43.538;-5.646;2023-05-01T17:53:38;99805.91;;;17.59
69704;BMP280;56967;43.538;-5.646;2023-05-01T17:56:03;99818.59;;;17.62
69704;BMP280;56967;43.538;-5.646;2023-05-01T17:58:28;99774.13;;;17.49
69704;BMP280;56967;43.538;-5.646;2023-05-01T18:00:54;99715.47;;;17.40
69704;BMP280;56967;43.538;-5.646;2023-05-01T18:03:19;99740.09;;;17.69
69704;BMP280;56967;43.538;-5.646;2023-05-01T18:05:45;99718.75;;;17.56
69704;BMP280;56967;43.538;-5.646;2023-05-01T18:08:10;99733.22;;;17.45
69704;BMP280;56967;43.538;-5.646;2023-05-01T18:10:35;99743.78;;;17.50
69704;BMP280;56967;43.538;-5.646;2023-05-01T18:13:01;99689.03;;;17.30
69704;BMP280;56967;43.538;-5.646;2023-05-01T18:15:26;99665.50;;;17.23
69704;BMP280;56967;43.538;-5.646;2023-05-01T18:17:51;99594.00;;;17.08
69704;BMP280;56967;43.538;-5.646;2023-05-01T18:20:17;99611.94;;;17.16
69704;BMP280;56967;43.538;-5.646;2023-05-01T18:22:43;99546.00;;;17.05